Edward Cornwallis — CGJV — position and weather

sailwx.info

Track history (hours):
 
Tides and Currents Weather Stations Pressure Air Temp Water Temp Dewpoint Dewpoint Depression Visibility Wind Speed Wind Dir Waves Ship Positions

Edward Cornwallis

Last reported at 2015-Jan-27 13:33 UTC. Time now 2015-Jan-27 14:24 UTC.
Position N 44°41' W 063°37'.

Length 83 m; draft 6 m.

Type: SAR. MMSI: 316020000.

Date/timePositionNaut miles runAvg speedWind from/ knotsBaromVisibWave heightAir tempDewpointWater temp
2015-Jan-27 13:33N 44°41' W 063°37'0 0.0
2015-Jan-27 12:33N 44°41' W 063°37'0 0.0
2015-Jan-27 11:33N 44°41' W 063°37'0 0.0
2015-Jan-27 10:33N 44°41' W 063°37'0 0.0
2015-Jan-27 09:33N 44°41' W 063°37'0 0.0
2015-Jan-27 08:33N 44°41' W 063°37'0 0.0
2015-Jan-27 07:24N 44°41' W 063°37'0 0.0
2015-Jan-27 06:27N 44°41' W 063°37'6 6.3
2015-Jan-27 05:33N 44°36' W 063°32'1110.8
2015-Jan-27 04:33N 44°28' W 063°23'1312.5
2015-Jan-27 03:33N 44°30' W 063°05'  
2015-Jan-22 00:32N 44°25' W 063°22'1211.8
2015-Jan-21 23:33N 44°34' W 063°32'710.1
2015-Jan-21 22:50N 44°41' W 063°37'0 2.1
2015-Jan-21 22:45N 44°41' W 063°37'0 0.1
2015-Jan-21 22:33N 44°41' W 063°37'0 0.0
2015-Jan-21 21:33N 44°41' W 063°37'0 0.0
2015-Jan-21 20:33N 44°41' W 063°37'0 0.0
2015-Jan-21 19:33N 44°41' W 063°37'0 0.0
2015-Jan-21 18:33N 44°41' W 063°37'0 0.0
2015-Jan-21 17:24N 44°41' W 063°37'0 0.0
2015-Jan-21 16:24N 44°41' W 063°37'0 0.0
2015-Jan-21 15:21N 44°41' W 063°37'0 0.0
2015-Jan-21 14:24N 44°41' W 063°37'0 0.0
2015-Jan-21 13:27N 44°41' W 063°37'0 0.0
2015-Jan-21 12:30N 44°41' W 063°37'0 0.0
2015-Jan-21 11:30N 44°41' W 063°37'0 0.0
2015-Jan-21 10:30N 44°41' W 063°37'0 0.0
2015-Jan-21 09:33N 44°41' W 063°37'0 0.0
2015-Jan-21 08:33N 44°41' W 063°37'0 0.0
2015-Jan-21 07:33N 44°41' W 063°37'0 0.0
2015-Jan-21 06:33N 44°41' W 063°37'0 0.0
2015-Jan-21 05:33N 44°41' W 063°37'0 0.0
2015-Jan-21 04:33N 44°41' W 063°37'0 0.0
2015-Jan-21 03:33N 44°41' W 063°37'0 0.0
2015-Jan-21 02:24N 44°41' W 063°37'0 0.0
2015-Jan-21 01:27N 44°41' W 063°37'0 0.0
2015-Jan-21 00:24N 44°41' W 063°37'0 0.0
2015-Jan-20 23:27N 44°41' W 063°37'0 0.0
2015-Jan-20 22:30N 44°41' W 063°37'0 0.0
2015-Jan-20 21:30N 44°41' W 063°37'0 0.0
2015-Jan-20 20:30N 44°41' W 063°37'0 0.0
2015-Jan-20 19:33N 44°41' W 063°37'0 0.0
2015-Jan-20 18:33N 44°41' W 063°37'0 0.0
2015-Jan-20 17:33N 44°41' W 063°37'0 0.0
2015-Jan-20 16:33N 44°41' W 063°37'0 0.0
2015-Jan-20 15:33N 44°41' W 063°37'0 0.0
2015-Jan-20 14:33N 44°41' W 063°37'0 0.0
2015-Jan-20 13:33N 44°41' W 063°37'0 0.0
2015-Jan-20 12:21N 44°41' W 063°37'0 0.0
2015-Jan-20 11:24N 44°41' W 063°37'0 0.0
2015-Jan-20 10:27N 44°41' W 063°37'0 0.0
2015-Jan-20 09:27N 44°41' W 063°37'0 0.0
2015-Jan-20 08:30N 44°41' W 063°37'0 0.0
2015-Jan-20 07:30N 44°41' W 063°37'0 0.0
2015-Jan-20 06:30N 44°41' W 063°37'0 0.0
2015-Jan-20 05:33N 44°41' W 063°37'0 0.0
2015-Jan-20 04:18N 44°41' W 063°37'0 0.0
2015-Jan-20 03:21N 44°41' W 063°37'0 0.0
2015-Jan-20 02:33N 44°41' W 063°37'0 0.0
2015-Jan-20 01:18N 44°41' W 063°37'0 0.0
2015-Jan-20 00:33N 44°41' W 063°37'0 0.0
2015-Jan-19 23:33N 44°41' W 063°37'0 0.0
2015-Jan-19 22:24N 44°41' W 063°37'0 0.0
2015-Jan-19 21:27N 44°41' W 063°37'0 0.0
2015-Jan-19 20:27N 44°41' W 063°37'0 0.0
2015-Jan-19 19:12N 44°41' W 063°37'0 0.0
2015-Jan-19 18:27N 44°41' W 063°37'0 0.0
2015-Jan-19 17:30N 44°41' W 063°37'2 1.8
2015-Jan-19 16:33N 44°42' W 063°39'1 0.6
2015-Jan-19 15:33N 44°41' W 063°38'0 0.1
2015-Jan-19 14:33N 44°41' W 063°38'1 1.0
2015-Jan-19 13:31N 44°41' W 063°37'0 0.0
2015-Jan-19 12:22N 44°41' W 063°37'0 0.0
2015-Jan-19 11:19N 44°41' W 063°37'0 0.0
2015-Jan-19 10:25N 44°41' W 063°37'0 0.0
2015-Jan-19 09:25N 44°41' W 063°37'0 0.0
2015-Jan-19 08:25N 44°41' W 063°37'0 0.0
2015-Jan-19 07:28N 44°41' W 063°37'0 0.0
2015-Jan-19 06:31N 44°41' W 063°37'0 0.0
2015-Jan-19 05:31N 44°41' W 063°37'0 0.0
2015-Jan-19 04:31N 44°41' W 063°37'0 0.0
2015-Jan-19 03:19N 44°41' W 063°37'0 0.0
2015-Jan-19 02:28N 44°41' W 063°37'0 0.0
2015-Jan-19 01:31N 44°41' W 063°37'0 0.0
2015-Jan-19 00:22N 44°41' W 063°37'0 0.0
2015-Jan-18 23:19N 44°41' W 063°37'0 0.0
2015-Jan-18 22:22N 44°41' W 063°37'0 0.0
2015-Jan-18 21:25N 44°41' W 063°37'0 0.0
2015-Jan-18 20:25N 44°41' W 063°37'0 0.0
2015-Jan-18 19:25N 44°41' W 063°37'0 0.0
2015-Jan-18 18:25N 44°41' W 063°37'0 0.0
2015-Jan-18 17:28N 44°41' W 063°37'0 0.0
2015-Jan-18 16:31N 44°41' W 063°37'0 0.0
2015-Jan-18 15:31N 44°41' W 063°37'0 0.0
2015-Jan-18 14:28N 44°41' W 063°37'0 0.0
2015-Jan-18 13:31N 44°41' W 063°37'0 0.0
2015-Jan-18 12:31N 44°41' W 063°37'0 0.0
2015-Jan-18 11:31N 44°41' W 063°37'0 0.0
2015-Jan-18 10:31N 44°41' W 063°37'0 0.0
2015-Jan-18 09:31N 44°41' W 063°37'0 0.0
2015-Jan-18 08:25N 44°41' W 063°37'0 0.0
2015-Jan-18 07:25N 44°41' W 063°37'0 0.0
2015-Jan-18 06:25N 44°41' W 063°37'0 0.0
2015-Jan-18 05:25N 44°41' W 063°37'0 0.0
2015-Jan-18 04:22N 44°41' W 063°37'0 0.0
2015-Jan-18 03:28N 44°41' W 063°37'0 0.0
2015-Jan-18 02:16N 44°41' W 063°37'0 0.0
2015-Jan-18 01:31N 44°41' W 063°37'0 0.0
2015-Jan-18 00:31N 44°41' W 063°37'0 0.0
2015-Jan-17 23:31N 44°41' W 063°37'0 0.0
2015-Jan-17 22:19N 44°41' W 063°37'0 0.0
2015-Jan-17 21:31N 44°41' W 063°37'0 0.0
2015-Jan-17 20:31N 44°41' W 063°37'0 0.0
2015-Jan-17 19:22N 44°41' W 063°37'0 0.0
2015-Jan-17 18:25N 44°41' W 063°37'0 0.0
2015-Jan-17 17:25N 44°41' W 063°37'0 0.0
2015-Jan-17 16:25N 44°41' W 063°37'0 0.0
2015-Jan-17 15:25N 44°41' W 063°37'0 0.0
2015-Jan-17 14:28N 44°41' W 063°37'  
Track history (hours):
 
Tides and Currents Weather Stations Pressure Air Temp Water Temp Dewpoint Dewpoint Depression Visibility Wind Speed Wind Dir Waves Ship Positions

Edward Cornwallis

Last reported at 2015-Jan-27 13:33 UTC. Time now 2015-Jan-27 14:24 UTC.
Position N 44°41' W 063°37'.

Length 83 m; draft 6 m.

Type: SAR. MMSI: 316020000.

Date/timePositionNaut miles runAvg speedWind from/ knotsBaromVisibWave heightAir tempDewpointWater temp
2015-Jan-27 13:33N 44°41' W 063°37'0 0.0
2015-Jan-27 12:33N 44°41' W 063°37'0 0.0
2015-Jan-27 11:33N 44°41' W 063°37'0 0.0
2015-Jan-27 10:33N 44°41' W 063°37'0 0.0
2015-Jan-27 09:33N 44°41' W 063°37'0 0.0
2015-Jan-27 08:33N 44°41' W 063°37'0 0.0
2015-Jan-27 07:24N 44°41' W 063°37'0 0.0
2015-Jan-27 06:27N 44°41' W 063°37'6 6.3
2015-Jan-27 05:33N 44°36' W 063°32'1110.8
2015-Jan-27 04:33N 44°28' W 063°23'1312.5
2015-Jan-27 03:33N 44°30' W 063°05'  
2015-Jan-22 00:32N 44°25' W 063°22'1211.8
2015-Jan-21 23:33N 44°34' W 063°32'710.1
2015-Jan-21 22:50N 44°41' W 063°37'0 2.1
2015-Jan-21 22:45N 44°41' W 063°37'0 0.1
2015-Jan-21 22:33N 44°41' W 063°37'0 0.0
2015-Jan-21 21:33N 44°41' W 063°37'0 0.0
2015-Jan-21 20:33N 44°41' W 063°37'0 0.0
2015-Jan-21 19:33N 44°41' W 063°37'0 0.0
2015-Jan-21 18:33N 44°41' W 063°37'0 0.0
2015-Jan-21 17:24N 44°41' W 063°37'0 0.0
2015-Jan-21 16:24N 44°41' W 063°37'0 0.0
2015-Jan-21 15:21N 44°41' W 063°37'0 0.0
2015-Jan-21 14:24N 44°41' W 063°37'0 0.0
2015-Jan-21 13:27N 44°41' W 063°37'0 0.0
2015-Jan-21 12:30N 44°41' W 063°37'0 0.0
2015-Jan-21 11:30N 44°41' W 063°37'0 0.0
2015-Jan-21 10:30N 44°41' W 063°37'0 0.0
2015-Jan-21 09:33N 44°41' W 063°37'0 0.0
2015-Jan-21 08:33N 44°41' W 063°37'0 0.0
2015-Jan-21 07:33N 44°41' W 063°37'0 0.0
2015-Jan-21 06:33N 44°41' W 063°37'0 0.0
2015-Jan-21 05:33N 44°41' W 063°37'0 0.0
2015-Jan-21 04:33N 44°41' W 063°37'0 0.0
2015-Jan-21 03:33N 44°41' W 063°37'0 0.0
2015-Jan-21 02:24N 44°41' W 063°37'0 0.0
2015-Jan-21 01:27N 44°41' W 063°37'0 0.0
2015-Jan-21 00:24N 44°41' W 063°37'0 0.0
2015-Jan-20 23:27N 44°41' W 063°37'0 0.0
2015-Jan-20 22:30N 44°41' W 063°37'0 0.0
2015-Jan-20 21:30N 44°41' W 063°37'0 0.0
2015-Jan-20 20:30N 44°41' W 063°37'0 0.0
2015-Jan-20 19:33N 44°41' W 063°37'0 0.0
2015-Jan-20 18:33N 44°41' W 063°37'0 0.0
2015-Jan-20 17:33N 44°41' W 063°37'0 0.0
2015-Jan-20 16:33N 44°41' W 063°37'0 0.0
2015-Jan-20 15:33N 44°41' W 063°37'0 0.0
2015-Jan-20 14:33N 44°41' W 063°37'0 0.0
2015-Jan-20 13:33N 44°41' W 063°37'0 0.0
2015-Jan-20 12:21N 44°41' W 063°37'0 0.0
2015-Jan-20 11:24N 44°41' W 063°37'0 0.0
2015-Jan-20 10:27N 44°41' W 063°37'0 0.0
2015-Jan-20 09:27N 44°41' W 063°37'0 0.0
2015-Jan-20 08:30N 44°41' W 063°37'0 0.0
2015-Jan-20 07:30N 44°41' W 063°37'0 0.0
2015-Jan-20 06:30N 44°41' W 063°37'0 0.0
2015-Jan-20 05:33N 44°41' W 063°37'0 0.0
2015-Jan-20 04:18N 44°41' W 063°37'0 0.0
2015-Jan-20 03:21N 44°41' W 063°37'0 0.0
2015-Jan-20 02:33N 44°41' W 063°37'0 0.0
2015-Jan-20 01:18N 44°41' W 063°37'0 0.0
2015-Jan-20 00:33N 44°41' W 063°37'0 0.0
2015-Jan-19 23:33N 44°41' W 063°37'0 0.0
2015-Jan-19 22:24N 44°41' W 063°37'0 0.0
2015-Jan-19 21:27N 44°41' W 063°37'0 0.0
2015-Jan-19 20:27N 44°41' W 063°37'0 0.0
2015-Jan-19 19:12N 44°41' W 063°37'0 0.0
2015-Jan-19 18:27N 44°41' W 063°37'0 0.0
2015-Jan-19 17:30N 44°41' W 063°37'2 1.8
2015-Jan-19 16:33N 44°42' W 063°39'1 0.6
2015-Jan-19 15:33N 44°41' W 063°38'0 0.1
2015-Jan-19 14:33N 44°41' W 063°38'1 1.0
2015-Jan-19 13:31N 44°41' W 063°37'0 0.0
2015-Jan-19 12:22N 44°41' W 063°37'0 0.0
2015-Jan-19 11:19N 44°41' W 063°37'0 0.0
2015-Jan-19 10:25N 44°41' W 063°37'0 0.0
2015-Jan-19 09:25N 44°41' W 063°37'0 0.0
2015-Jan-19 08:25N 44°41' W 063°37'0 0.0
2015-Jan-19 07:28N 44°41' W 063°37'0 0.0
2015-Jan-19 06:31N 44°41' W 063°37'0 0.0
2015-Jan-19 05:31N 44°41' W 063°37'0 0.0
2015-Jan-19 04:31N 44°41' W 063°37'0 0.0
2015-Jan-19 03:19N 44°41' W 063°37'0 0.0
2015-Jan-19 02:28N 44°41' W 063°37'0 0.0
2015-Jan-19 01:31N 44°41' W 063°37'0 0.0
2015-Jan-19 00:22N 44°41' W 063°37'0 0.0
2015-Jan-18 23:19N 44°41' W 063°37'0 0.0
2015-Jan-18 22:22N 44°41' W 063°37'0 0.0
2015-Jan-18 21:25N 44°41' W 063°37'0 0.0
2015-Jan-18 20:25N 44°41' W 063°37'0 0.0
2015-Jan-18 19:25N 44°41' W 063°37'0 0.0
2015-Jan-18 18:25N 44°41' W 063°37'0 0.0
2015-Jan-18 17:28N 44°41' W 063°37'0 0.0
2015-Jan-18 16:31N 44°41' W 063°37'0 0.0
2015-Jan-18 15:31N 44°41' W 063°37'0 0.0
2015-Jan-18 14:28N 44°41' W 063°37'0 0.0
2015-Jan-18 13:31N 44°41' W 063°37'0 0.0
2015-Jan-18 12:31N 44°41' W 063°37'0 0.0
2015-Jan-18 11:31N 44°41' W 063°37'0 0.0
2015-Jan-18 10:31N 44°41' W 063°37'0 0.0
2015-Jan-18 09:31N 44°41' W 063°37'0 0.0
2015-Jan-18 08:25N 44°41' W 063°37'0 0.0
2015-Jan-18 07:25N 44°41' W 063°37'0 0.0
2015-Jan-18 06:25N 44°41' W 063°37'0 0.0
2015-Jan-18 05:25N 44°41' W 063°37'0 0.0
2015-Jan-18 04:22N 44°41' W 063°37'0 0.0
2015-Jan-18 03:28N 44°41' W 063°37'0 0.0
2015-Jan-18 02:16N 44°41' W 063°37'0 0.0
2015-Jan-18 01:31N 44°41' W 063°37'0 0.0
2015-Jan-18 00:31N 44°41' W 063°37'0 0.0
2015-Jan-17 23:31N 44°41' W 063°37'0 0.0
2015-Jan-17 22:19N 44°41' W 063°37'0 0.0
2015-Jan-17 21:31N 44°41' W 063°37'0 0.0
2015-Jan-17 20:31N 44°41' W 063°37'0 0.0
2015-Jan-17 19:22N 44°41' W 063°37'0 0.0
2015-Jan-17 18:25N 44°41' W 063°37'0 0.0
2015-Jan-17 17:25N 44°41' W 063°37'0 0.0
2015-Jan-17 16:25N 44°41' W 063°37'0 0.0
2015-Jan-17 15:25N 44°41' W 063°37'0 0.0
2015-Jan-17 14:28N 44°41' W 063°37'  

Dump ship's entire track history